Decoded Metar for KUNU (JUNEAU in WI, USA) (IATA:UNU) | Meteo·Mobile Aviation Weather
aviador You're here:

KUNU Decoded Metar

JUNEAU in WI, USA
Report Time2019-02-23 00:55:00
UTC Time2019-02-23 01:02:10
Flight Rules vfr VFR
WindCalm
Visibility9999 m
Phenomena:N/A
Clouds:Overcast 100 Hf
Expected CloudBase > 2,000 ft AGL from Temp-Dew spread
Ceiling10,000 ft
Temp-2°C (ISA -15)
Dew Point-7°C (69% RH)
AAT-4.8°C
QNH1028 hPa
Density Alt-1,375 ft
Elevation935 ft
Report Wrong Elevation
Raw Report
KUNU 230055Z AUTO 00000KT 10SM OVC100 M02/M07 A3036 RMK AO2
T10221075 TSNO=

Extra information for KUNU:More info

Metar Taf Metar & Taf Last 4 Metars F.Rules Stats Wind Profile Meteogram Temp Stats Airport Information Weather charts Add Link Nearby VenuesMetar ALERT Operation Metar Decoded Social comments

AIRNAV info for KUNU